Time;durP1;ratioP1;P1;durP2;ratioP2;P2;SDS_P1;SDS_P2;PMS_P1;PMS_P2;Temp;Humidity;BMP_temperature;BMP_pressure;BME280_temperature;BME280_humidity;BME280_pressure;Samples;Min_cycle;Max_cycle;Signal;HPM_P1;HPM_P2
2021/01/18 00:00:57;;;;;;;5.10;1.30;;;4.50;85.50;;;;;;6187787;23;20280;-90
2021/01/18 00:03:24;;;;;;;1.30;0.50;;;4.50;85.50;;;;;;6187383;23;20004;-88
2021/01/18 00:05:51;;;;;;;1.37;0.47;;;4.50;85.40;;;;;;6166448;23;20007;-91
2021/01/18 00:08:17;;;;;;;2.67;1.20;;;4.50;85.40;;;;;;6218820;23;19997;-90
2021/01/18 00:10:45;;;;;;;1.90;0.77;;;4.50;85.40;;;;;;6192487;23;20004;-89
2021/01/18 00:13:11;;;;;;;0.83;0.43;;;4.50;85.50;;;;;;6218357;23;19997;-91
2021/01/18 00:15:38;;;;;;;3.63;1.53;;;4.40;85.40;;;;;;6189997;23;20023;-90
2021/01/18 00:18:04;;;;;;;3.23;1.00;;;4.40;85.40;;;;;;6190617;23;20350;-89
2021/01/18 00:20:31;;;;;;;2.33;1.13;;;4.50;85.40;;;;;;6191122;23;20001;-89
2021/01/18 00:22:57;;;;;;;2.23;1.37;;;4.40;85.40;;;;;;6192321;23;20411;-91
2021/01/18 00:25:24;;;;;;;0.73;0.70;;;4.40;85.40;;;;;;6195130;23;20004;-89
2021/01/18 00:27:51;;;;;;;3.17;1.43;;;4.40;85.40;;;;;;6220884;23;19993;-90
2021/01/18 00:30:23;;;;;;;1.23;0.50;;;4.40;85.50;;;;;;6194851;23;20005;-89
2021/01/18 00:32:51;;;;;;;3.10;1.47;;;4.40;85.50;;;;;;6220070;23;20623;-89
2021/01/18 00:35:18;;;;;;;3.30;1.13;;;4.40;85.60;;;;;;6169791;23;20011;-88
2021/01/18 00:37:54;;;;;;;1.90;0.77;;;4.30;85.60;;;;;;6195226;23;20007;-89
2021/01/18 00:40:22;;;;;;;1.07;0.83;;;4.30;85.60;;;;;;6191753;23;20349;-89
2021/01/18 00:42:48;;;;;;;2.63;1.43;;;4.30;85.70;;;;;;6186394;23;20009;-88
2021/01/18 00:45:16;;;;;;;2.43;1.47;;;4.20;85.60;;;;;;6187937;23;19994;-89
2021/01/18 00:47:47;;;;;;;1.73;1.00;;;4.30;85.70;;;;;;6189950;23;20000;-89
2021/01/18 00:50:21;;;;;;;3.60;1.02;;;4.20;85.70;;;;;;6215245;23;20269;-89
2021/01/18 00:52:49;;;;;;;12.50;1.57;;;4.20;85.80;;;;;;6192990;23;20264;-91
2021/01/18 00:55:17;;;;;;;3.83;1.30;;;4.20;85.80;;;;;;6197157;23;20008;-89
2021/01/18 00:57:43;;;;;;;3.13;0.50;;;4.20;85.90;;;;;;6213283;23;19997;-89
2021/01/18 01:00:12;;;;;;;1.70;0.70;;;4.10;85.90;;;;;;6162083;23;20005;-88
2021/01/18 01:02:42;;;;;;;6.13;1.43;;;4.10;85.90;;;;;;6186450;23;19997;-91
2021/01/18 01:05:10;;;;;;;1.85;0.75;;;4.00;85.90;;;;;;6189546;23;20001;-88
2021/01/18 01:07:44;;;;;;;2.47;0.80;;;4.10;86.00;;;;;;6168161;23;20001;-92
2021/01/18 01:10:12;;;;;;;0.87;0.37;;;4.00;86.00;;;;;;6195704;23;20001;-91
2021/01/18 01:12:38;;;;;;;1.13;0.60;;;4.00;86.00;;;;;;6219538;23;19997;-93
2021/01/18 01:15:08;;;;;;;3.83;1.53;;;4.00;86.10;;;;;;6220012;23;20155;-91
2021/01/18 01:17:44;;;;;;;11.07;2.17;;;4.00;86.20;;;;;;6219281;23;19993;-90
2021/01/18 01:20:11;;;;;;;7.13;2.97;;;3.90;86.20;;;;;;6168969;23;20419;-91
2021/01/18 01:22:38;;;;;;;1.93;1.60;;;4.00;86.20;;;;;;6165712;23;20007;-91
2021/01/18 01:25:06;;;;;;;4.30;1.33;;;3.90;86.10;;;;;;6214718;23;20044;-90
2021/01/18 01:27:33;;;;;;;4.03;1.57;;;3.90;86.10;;;;;;6187981;23;20004;-92
2021/01/18 01:29:59;;;;;;;0.57;0.40;;;3.90;86.20;;;;;;6213279;23;20012;-92
2021/01/18 01:32:26;;;;;;;1.67;1.13;;;3.90;86.10;;;;;;6161166;23;20013;-91
2021/01/18 01:34:52;;;;;;;3.00;1.87;;;3.90;86.00;;;;;;6189915;23;20265;-91
2021/01/18 01:37:18;;;;;;;2.60;0.70;;;4.00;86.00;;;;;;6214795;23;20004;-90
2021/01/18 01:39:45;;;;;;;0.43;0.30;;;4.00;85.90;;;;;;6164945;23;20009;-92
2021/01/18 01:42:21;;;;;;;2.53;0.60;;;4.00;85.80;;;;;;6190878;23;20017;-91
2021/01/18 01:44:48;;;;;;;1.07;0.87;;;4.00;85.80;;;;;;6188445;23;20001;-91
2021/01/18 01:47:37;;;;;;;0.30;0.30;;;4.00;85.70;;;;;;6160359;23;20005;-92
2021/01/18 01:50:11;;;;;;;3.53;1.73;;;4.00;85.70;;;;;;6209165;23;19993;-91
2021/01/18 01:52:46;;;;;;;2.63;0.73;;;4.00;85.70;;;;;;6161569;23;20004;-92
2021/01/18 01:55:14;;;;;;;3.40;0.97;;;4.00;85.60;;;;;;6161940;23;20004;-90
2021/01/18 01:57:41;;;;;;;0.73;0.50;;;4.00;85.60;;;;;;6188045;23;20005;-91
2021/01/18 02:00:08;;;;;;;0.83;0.30;;;4.00;85.70;;;;;;6184780;23;20008;-93
2021/01/18 02:02:34;;;;;;;1.00;0.33;;;4.00;85.60;;;;;;6212149;23;20361;-93
2021/01/18 02:05:11;;;;;;;0.43;0.10;;;4.00;85.50;;;;;;6186938;23;20004;-90
2021/01/18 02:07:37;;;;;;;1.03;0.57;;;4.00;85.50;;;;;;6185819;23;19997;-92
2021/01/18 02:10:04;;;;;;;0.37;0.20;;;4.00;85.60;;;;;;6212245;23;20001;-89
2021/01/18 02:12:30;;;;;;;0.93;0.43;;;4.00;85.60;;;;;;6191155;23;20005;-90
2021/01/18 02:15:34;;;;;;;1.83;0.40;;;4.00;85.70;;;;;;6194329;23;20009;-90
2021/01/18 02:18:09;;;;;;;1.43;0.70;;;3.90;85.60;;;;;;6191040;23;20025;-90
2021/01/18 02:21:13;;;;;;;2.20;0.73;;;3.90;85.80;;;;;;6204286;23;20009;-91
2021/01/18 02:24:15;;;;;;;2.43;0.90;;;3.90;85.80;;;;;;6205107;23;20020;-93
2021/01/18 02:27:13;;;;;;;0.73;0.40;;;3.90;85.90;;;;;;6205205;23;20292;-89
2021/01/18 02:29:44;;;;;;;0.60;0.17;;;3.90;85.80;;;;;;6205344;23;20012;-93
2021/01/18 02:32:25;;;;;;;2.88;0.85;;;3.80;85.80;;;;;;6186724;23;20013;-90
2021/01/18 02:34:54;;;;;;;;;;;3.80;85.90;;;;;;6184460;23;20012;-89
2021/01/18 02:37:36;;;;;;;1.37;0.67;;;3.80;85.90;;;;;;6185827;23;20170;-90
2021/01/18 02:40:08;;;;;;;3.87;1.03;;;3.70;86.00;;;;;;6188272;23;20001;-90
2021/01/18 02:42:50;;;;;;;1.30;0.83;;;3.70;86.00;;;;;;6186369;23;20014;-90
2021/01/18 02:45:17;;;;;;;1.73;0.97;;;3.70;86.00;;;;;;6160140;23;20012;-88
2021/01/18 02:47:43;;;;;;;1.23;0.60;;;3.70;86.00;;;;;;6160886;23;19998;-89
2021/01/18 02:50:10;;;;;;;12.37;0.63;;;3.70;86.10;;;;;;6186281;23;19997;-89
2021/01/18 02:52:42;;;;;;;2.40;0.30;;;3.70;86.10;;;;;;6160096;23;20021;-89
2021/01/18 02:55:10;;;;;;;6.67;0.67;;;3.60;86.20;;;;;;6187920;23;19997;-88
2021/01/18 02:57:39;;;;;;;7.60;0.53;;;3.60;86.30;;;;;;6160604;23;20286;-89
2021/01/18 03:00:19;;;;;;;1.20;0.80;;;3.50;86.40;;;;;;6173405;23;20002;-92
2021/01/18 03:02:54;;;;;;;0.87;0.23;;;3.50;86.50;;;;;;6161207;23;20033;-91
2021/01/18 03:05:46;;;;;;;1.60;0.53;;;3.50;86.60;;;;;;6185721;23;20381;-91
2021/01/18 03:08:24;;;;;;;8.97;1.70;;;3.50;86.60;;;;;;6185149;23;20001;-93
2021/01/18 03:11:02;;;;;;;0.67;0.40;;;3.40;86.60;;;;;;6161156;23;20153;-93
2021/01/18 03:13:33;;;;;;;0.67;0.27;;;3.40;86.70;;;;;;6187258;23;20365;-94
2021/01/18 03:16:04;;;;;;;23.67;0.93;;;3.40;86.70;;;;;;6185899;23;20017;-93
2021/01/18 03:18:32;;;;;;;1.08;0.25;;;3.30;86.60;;;;;;6185693;23;20342;-92
2021/01/18 03:20:58;;;;;;;0.30;0.13;;;3.30;86.60;;;;;;6185780;23;20004;-94
2021/01/18 03:23:25;;;;;;;0.67;0.40;;;3.30;86.60;;;;;;6186940;23;20028;-93
2021/01/18 03:25:52;;;;;;;0.40;0.30;;;3.40;86.70;;;;;;6186520;23;20020;-92
2021/01/18 03:28:20;;;;;;;1.30;0.67;;;3.30;86.60;;;;;;6213154;23;20381;-93
2021/01/18 03:30:46;;;;;;;0.97;0.43;;;3.30;86.60;;;;;;6159981;23;20009;-93
2021/01/18 03:33:13;;;;;;;1.33;0.77;;;3.30;86.60;;;;;;6187354;23;20004;-92
2021/01/18 03:35:42;;;;;;;1.27;0.70;;;3.30;86.60;;;;;;6209941;23;20005;-92
2021/01/18 03:38:08;;;;;;;2.47;0.83;;;3.30;86.60;;;;;;6187000;23;20020;-92
2021/01/18 03:40:35;;;;;;;1.70;0.50;;;3.20;86.60;;;;;;6186804;23;20000;-94
2021/01/18 03:43:03;;;;;;;2.33;0.40;;;3.20;86.70;;;;;;6188391;23;20005;-93
2021/01/18 03:45:31;;;;;;;0.70;0.50;;;3.20;86.70;;;;;;6160622;23;20020;-92
2021/01/18 03:47:57;;;;;;;0.30;0.20;;;3.20;86.80;;;;;;6186731;23;20389;-93
2021/01/18 03:50:24;;;;;;;0.63;0.20;;;3.20;86.90;;;;;;6186266;23;20012;-93
2021/01/18 03:52:51;;;;;;;1.20;0.40;;;3.20;86.90;;;;;;6161716;23;20020;-93
2021/01/18 03:55:18;;;;;;;0.60;0.33;;;3.20;86.90;;;;;;6188265;23;20257;-93
2021/01/18 03:57:45;;;;;;;0.43;0.10;;;3.20;87.00;;;;;;6161310;23;20411;-92
2021/01/18 04:00:12;;;;;;;1.27;0.50;;;3.10;86.90;;;;;;6160618;23;20016;-94
2021/01/18 04:02:39;;;;;;;2.20;0.47;;;3.10;86.90;;;;;;6198106;23;19990;-93
2021/01/18 04:05:07;;;;;;;1.93;0.70;;;3.10;86.90;;;;;;6203678;23;20039;-93
2021/01/18 04:07:33;;;;;;;1.57;0.70;;;3.10;87.00;;;;;;6176503;23;20015;-91
2021/01/18 04:09:59;;;;;;;2.50;0.97;;;3.00;87.00;;;;;;6205163;23;19993;-92
2021/01/18 04:12:26;;;;;;;0.00;0.00;;;3.00;87.00;;;;;;6177801;23;20027;-93
2021/01/18 04:14:52;;;;;;;0.27;0.27;;;3.00;87.10;;;;;;6191182;23;20418;-92
2021/01/18 04:17:20;;;;;;;1.30;0.83;;;3.00;87.20;;;;;;6186142;23;20020;-92
2021/01/18 04:19:47;;;;;;;1.33;0.60;;;3.00;87.20;;;;;;6185435;23;20001;-94
2021/01/18 04:22:13;;;;;;;0.53;0.37;;;2.90;87.20;;;;;;6186752;23;20012;-92
2021/01/18 04:24:39;;;;;;;3.50;0.83;;;2.90;87.30;;;;;;6186901;23;20001;-94
2021/01/18 04:27:09;;;;;;;2.03;1.43;;;2.90;87.30;;;;;;6161092;23;19997;-93
2021/01/18 04:29:35;;;;;;;2.23;0.40;;;2.90;87.30;;;;;;6187748;23;19993;-92
2021/01/18 04:32:03;;;;;;;2.03;1.00;;;2.90;87.30;;;;;;6184598;23;20009;-93
2021/01/18 04:34:29;;;;;;;0.73;0.53;;;2.90;87.20;;;;;;6185003;23;20005;-91
2021/01/18 04:36:56;;;;;;;0.83;0.53;;;2.80;87.20;;;;;;6186863;23;19999;-93
2021/01/18 04:39:22;;;;;;;0.43;0.33;;;2.80;87.20;;;;;;6186375;23;20121;-91
2021/01/18 04:41:48;;;;;;;2.03;0.70;;;2.80;87.90;;;;;;6200350;23;20009;-92
2021/01/18 04:44:18;;;;;;;0.47;0.20;;;2.80;87.20;;;;;;6188651;23;20005;-91
2021/01/18 04:46:46;;;;;;;0.20;0.20;;;2.80;87.20;;;;;;6184731;23;20012;-91
2021/01/18 04:49:13;;;;;;;0.17;0.03;;;2.80;87.20;;;;;;6185525;23;20200;-92
2021/01/18 04:51:51;;;;;;;0.67;0.43;;;2.80;87.30;;;;;;6185398;23;20001;-89
2021/01/18 04:54:18;;;;;;;2.17;0.53;;;2.70;87.10;;;;;;6183465;23;20001;-90
2021/01/18 04:57:00;;;;;;;0.53;0.37;;;2.70;87.10;;;;;;6185172;23;20008;-90
2021/01/18 04:59:29;;;;;;;0.35;0.15;;;2.70;87.20;;;;;;6185200;23;20008;-91
2021/01/18 05:02:07;;;;;;;1.23;0.67;;;2.60;87.30;;;;;;6212546;23;20544;-93
2021/01/18 05:04:38;;;;;;;1.17;0.57;;;2.60;87.30;;;;;;6215784;23;19997;-92
2021/01/18 05:07:32;;;;;;;1.75;0.98;;;2.50;87.40;;;;;;6216494;23;20254;-90
2021/01/18 05:10:09;;;;;;;18.73;1.07;;;2.50;87.60;;;;;;6209485;23;19997;-92
2021/01/18 05:12:39;;;;;;;0.30;0.30;;;2.50;87.60;;;;;;6212531;23;19993;-92
2021/01/18 05:15:10;;;;;;;0.93;0.40;;;2.50;87.60;;;;;;6210782;23;20001;-88
2021/01/18 05:17:47;;;;;;;1.90;0.63;;;2.50;87.50;;;;;;6211253;23;20432;-91
2021/01/18 05:20:17;;;;;;;3.40;1.27;;;2.50;87.40;;;;;;6186264;23;20001;-91
2021/01/18 05:22:45;;;;;;;2.13;0.90;;;2.40;87.30;;;;;;6186626;23;20379;-89
2021/01/18 05:25:14;;;;;;;3.30;1.57;;;2.50;87.40;;;;;;6210773;23;20020;-91
2021/01/18 05:28:02;;;;;;;1.60;0.67;;;2.50;87.40;;;;;;6185791;23;20001;-90
2021/01/18 05:30:36;;;;;;;0.10;0.10;;;2.50;87.40;;;;;;6211543;23;20012;-90
2021/01/18 05:33:07;;;;;;;1.40;0.57;;;2.40;87.30;;;;;;6211457;23;20001;-92
2021/01/18 05:35:38;;;;;;;1.70;0.60;;;2.40;87.30;;;;;;6211591;23;19998;-91
2021/01/18 05:38:09;;;;;;;0.73;0.20;;;2.30;87.30;;;;;;6210361;23;19997;-90
2021/01/18 05:40:37;;;;;;;2.58;0.55;;;2.30;87.40;;;;;;6209525;23;19997;-90
2021/01/18 05:43:03;;;;;;;0.77;0.57;;;2.30;87.60;;;;;;6160285;23;20292;-91
2021/01/18 05:45:39;;;;;;;0.80;0.60;;;2.30;87.60;;;;;;6186204;23;20357;-90
2021/01/18 05:48:06;;;;;;;1.63;0.53;;;2.30;87.60;;;;;;6184230;23;20261;-91
2021/01/18 05:50:33;;;;;;;0.10;0.07;;;2.20;87.50;;;;;;6159199;23;20001;-91
2021/01/18 05:53:00;;;;;;;1.37;0.93;;;2.20;87.60;;;;;;6187139;23;20001;-92
2021/01/18 05:55:30;;;;;;;0.70;0.33;;;2.20;87.60;;;;;;6159715;23;20008;-91
2021/01/18 05:58:01;;;;;;;0.40;0.25;;;2.20;87.60;;;;;;6186041;23;19993;-90
2021/01/18 06:00:31;;;;;;;15.68;0.40;;;2.10;87.60;;;;;;6184535;23;20420;-91
2021/01/18 06:02:58;;;;;;;0.20;0.17;;;2.10;87.60;;;;;;6187500;23;19997;-90
2021/01/18 06:05:32;;;;;;;2.00;0.47;;;2.10;87.70;;;;;;6186900;23;20001;-89
2021/01/18 06:08:15;;;;;;;0.43;0.43;;;2.10;87.70;;;;;;6186058;23;20004;-90
2021/01/18 06:10:42;;;;;;;3.93;0.93;;;2.10;87.60;;;;;;6188022;23;20261;-90
2021/01/18 06:13:18;;;;;;;0.77;0.63;;;2.10;87.60;;;;;;6183484;23;19997;-90
2021/01/18 06:15:46;;;;;;;3.13;1.00;;;2.10;87.60;;;;;;6191446;23;20005;-89
2021/01/18 06:18:14;;;;;;;1.87;0.83;;;2.00;87.60;;;;;;6188016;23;20005;-89
2021/01/18 06:20:40;;;;;;;0.97;0.50;;;2.00;87.70;;;;;;6187626;23;20178;-89
2021/01/18 06:23:07;;;;;;;2.27;0.90;;;2.00;87.70;;;;;;6161291;23;20377;-89
2021/01/18 06:25:34;;;;;;;0.70;0.30;;;2.00;87.60;;;;;;6161036;23;20012;-88
2021/01/18 06:28:01;;;;;;;1.90;0.70;;;2.00;87.60;;;;;;6185711;23;19997;-88
2021/01/18 06:30:28;;;;;;;1.43;0.57;;;2.00;87.60;;;;;;6160350;23;20009;-89
2021/01/18 06:32:56;;;;;;;0.63;0.20;;;1.90;87.70;;;;;;6161441;23;19993;-90
2021/01/18 06:35:30;;;;;;;0.50;0.30;;;1.90;87.70;;;;;;6187240;23;20005;-90
2021/01/18 06:38:02;;;;;;;0.87;0.43;;;1.90;87.70;;;;;;6160701;23;20369;-88
2021/01/18 06:40:38;;;;;;;1.70;0.73;;;1.90;87.70;;;;;;6187549;23;19997;-88
2021/01/18 06:43:07;;;;;;;2.03;0.63;;;1.90;87.70;;;;;;6186542;23;20005;-88
2021/01/18 06:45:37;;;;;;;3.27;1.10;;;1.90;87.60;;;;;;6185386;23;20024;-90
2021/01/18 06:48:05;;;;;;;1.17;0.70;;;1.90;87.50;;;;;;6159770;23;20005;-88
2021/01/18 06:50:36;;;;;;;0.20;0.10;;;1.90;87.60;;;;;;6186448;23;20024;-89
2021/01/18 06:53:17;;;;;;;3.47;0.85;;;1.90;88.30;;;;;;6160300;23;20265;-89
2021/01/18 06:56:01;;;;;;;1.60;0.35;;;1.80;87.50;;;;;;6185058;23;20019;-90
2021/01/18 06:58:50;;;;;;;0.83;0.50;;;1.80;87.60;;;;;;6161288;23;20261;-88
2021/01/18 07:01:18;;;;;;;0.47;0.30;;;1.80;87.60;;;;;;6159892;23;20014;-89
2021/01/18 07:03:44;;;;;;;1.10;0.83;;;1.80;87.60;;;;;;6186730;23;20012;-88
2021/01/18 07:06:27;;;;;;;0.20;0.20;;;1.80;87.60;;;;;;6185973;23;19997;-88
2021/01/18 07:08:54;;;;;;;0.87;0.27;;;1.80;87.50;;;;;;6160510;23;20242;-88
2021/01/18 07:11:20;;;;;;;1.77;1.10;;;1.80;87.50;;;;;;6185426;23;20209;-89
2021/01/18 07:13:49;;;;;;;0.40;0.17;;;1.80;87.60;;;;;;6161317;23;20004;-89
2021/01/18 07:16:17;;;;;;;1.80;0.73;;;1.70;87.60;;;;;;6183831;23;20029;-88
2021/01/18 07:18:57;;;;;;;1.37;0.60;;;1.80;87.60;;;;;;6160596;23;20001;-88
2021/01/18 07:21:26;;;;;;;0.40;0.10;;;1.80;87.50;;;;;;6160441;23;20002;-88
2021/01/18 07:23:55;;;;;;;0.07;0.00;;;1.70;87.50;;;;;;6185138;23;20004;-89
2021/01/18 07:26:49;;;;;;;0.10;0.10;;;1.70;87.60;;;;;;6187230;23;20001;-88
2021/01/18 07:29:17;;;;;;;0.50;0.17;;;1.70;87.60;;;;;;6187163;23;19993;-88
2021/01/18 07:31:45;;;;;;;1.80;0.77;;;1.70;87.60;;;;;;6159150;23;20009;-87
2021/01/18 07:34:16;;;;;;;1.03;0.63;;;1.70;87.60;;;;;;6186214;23;20261;-89
2021/01/18 07:36:42;;;;;;;1.08;0.40;;;1.70;87.50;;;;;;6186263;23;20132;-89
2021/01/18 07:39:32;;;;;;;4.33;0.67;;;1.70;87.50;;;;;;6160739;23;20009;-89
2021/01/18 07:41:59;;;;;;;0.73;0.50;;;1.70;87.50;;;;;;6201513;23;20013;-88
2021/01/18 07:44:33;;;;;;;0.10;0.03;;;1.70;87.50;;;;;;6212645;23;20012;-88
2021/01/18 07:47:01;;;;;;;0.43;0.30;;;1.80;87.40;;;;;;6210319;23;20005;-89
2021/01/18 07:49:33;;;;;;;0.77;0.47;;;1.80;87.30;;;;;;6210557;23;20004;-89
2021/01/18 07:52:34;;;;;;;;;;;1.80;87.20;;;;;;6185069;23;19997;-88
2021/01/18 07:55:01;;;;;;;0.38;0.20;;;1.90;87.10;;;;;;6125882;23;19901;-88
2021/01/18 07:57:29;;;;;;;9.67;0.80;;;1.90;86.60;;;;;;6167568;23;20008;-89
2021/01/18 08:00:27;;;;;;;0.80;0.60;;;2.00;86.50;;;;;;6209595;23;20385;-89
2021/01/18 08:03:10;;;;;;;0.60;0.50;;;2.10;86.30;;;;;;6183741;23;20013;-89
2021/01/18 08:05:38;;;;;;;2.53;0.90;;;2.10;86.20;;;;;;6207770;23;20008;-90
2021/01/18 08:08:05;;;;;;;1.90;0.87;;;2.10;86.20;;;;;;6184593;23;20004;-89
2021/01/18 08:10:51;;;;;;;2.23;0.90;;;2.20;86.10;;;;;;6184377;23;20024;-87
2021/01/18 08:13:49;;;;;;;0.97;0.67;;;2.20;85.90;;;;;;6184429;23;20093;-88
2021/01/18 08:16:38;;;;;;;0.47;0.40;;;2.40;85.70;;;;;;6183510;23;20415;-91
2021/01/18 08:19:26;;;;;;;1.13;0.70;;;2.50;85.40;;;;;;6183795;23;20003;-89
2021/01/18 08:22:00;;;;;;;1.80;0.80;;;2.50;85.10;;;;;;6183287;23;20055;-89
2021/01/18 08:24:29;;;;;;;1.37;0.57;;;2.60;85.00;;;;;;6184808;23;20012;-90
2021/01/18 08:26:59;;;;;;;0.70;0.50;;;2.70;84.90;;;;;;6187007;23;20336;-88
2021/01/18 08:29:39;;;;;;;1.77;0.80;;;2.70;84.70;;;;;;6185259;23;20004;-88
2021/01/18 08:32:36;;;;;;;2.33;0.80;;;2.80;84.60;;;;;;6209967;23;20013;-88
2021/01/18 08:35:07;;;;;;;3.50;0.97;;;2.90;84.50;;;;;;6158376;23;20179;-88
2021/01/18 08:37:35;;;;;;;3.37;1.17;;;2.90;84.30;;;;;;6210346;23;20020;-88
2021/01/18 08:40:14;;;;;;;0.37;0.27;;;3.00;84.30;;;;;;6210062;23;20009;-88
2021/01/18 08:42:41;;;;;;;0.73;0.40;;;3.00;84.10;;;;;;6184814;23;20017;-88
2021/01/18 08:45:09;;;;;;;1.70;0.77;;;3.10;84.10;;;;;;6183978;23;20016;-89
2021/01/18 08:47:43;;;;;;;0.73;0.37;;;3.20;84.00;;;;;;6211585;23;19989;-89
2021/01/18 08:50:34;;;;;;;2.33;1.03;;;3.20;83.80;;;;;;6208221;23;19997;-89
2021/01/18 08:53:03;;;;;;;1.90;0.75;;;3.30;83.70;;;;;;6187171;23;20004;-90
2021/01/18 08:55:39;;;;;;;1.80;1.13;;;3.60;83.60;;;;;;6185582;23;20012;-87
2021/01/18 08:58:05;;;;;;;1.17;0.63;;;3.90;82.70;;;;;;6185388;23;20008;-91
2021/01/18 09:00:45;;;;;;;5.30;1.60;;;4.00;82.20;;;;;;6216105;23;20020;-88
2021/01/18 09:03:21;;;;;;;0.93;0.60;;;4.00;82.20;;;;;;6216418;23;20005;-90
2021/01/18 09:05:57;;;;;;;0.43;0.37;;;4.00;82.30;;;;;;6195658;23;20009;-90
2021/01/18 09:08:24;;;;;;;8.37;1.57;;;4.00;82.50;;;;;;6191629;23;20001;-88
2021/01/18 09:10:57;;;;;;;3.43;1.17;;;4.00;82.60;;;;;;6191454;23;20381;-89
2021/01/18 09:13:28;;;;;;;0.70;0.50;;;3.90;82.70;;;;;;6208722;23;20008;-88
2021/01/18 09:15:56;;;;;;;2.20;0.75;;;4.00;82.90;;;;;;6198560;23;20013;-91
2021/01/18 09:18:25;;;;;;;1.27;0.60;;;4.10;82.90;;;;;;6184436;23;20029;-89
2021/01/18 09:20:53;;;;;;;0.83;0.47;;;4.20;82.80;;;;;;6210102;23;19994;-88
2021/01/18 09:23:19;;;;;;;2.20;0.93;;;4.20;82.50;;;;;;6210260;23;19997;-89
2021/01/18 09:25:46;;;;;;;1.90;1.37;;;4.20;82.60;;;;;;6184683;23;20005;-90
2021/01/18 09:28:13;;;;;;;1.97;1.00;;;4.30;82.70;;;;;;6184737;23;20025;-90
2021/01/18 09:30:43;;;;;;;0.60;0.50;;;4.30;82.60;;;;;;6183550;23;20010;-89
2021/01/18 09:33:11;;;;;;;0.80;0.60;;;4.40;82.40;;;;;;6184740;23;20008;-89
2021/01/18 09:35:41;;;;;;;0.67;0.60;;;4.50;82.30;;;;;;6185004;23;20001;-89
2021/01/18 09:38:08;;;;;;;2.28;0.80;;;4.70;82.10;;;;;;6184818;23;20016;-89
2021/01/18 09:40:37;;;;;;;2.83;1.37;;;4.70;82.00;;;;;;6184348;23;20009;-88
2021/01/18 09:43:04;;;;;;;2.73;0.43;;;4.80;81.80;;;;;;6159007;23;20258;-88
2021/01/18 09:45:31;;;;;;;1.37;0.93;;;4.80;81.80;;;;;;6183122;23;20020;-87
2021/01/18 09:48:02;;;;;;;3.63;0.87;;;4.80;82.10;;;;;;6184665;23;20292;-89
2021/01/18 09:50:31;;;;;;;1.93;0.93;;;4.80;82.20;;;;;;6161839;23;20008;-91
2021/01/18 09:52:57;;;;;;;1.80;0.47;;;4.80;82.20;;;;;;6161069;23;20005;-91
2021/01/18 09:55:30;;;;;;;0.57;0.37;;;4.90;82.20;;;;;;6187216;23;19993;-89
2021/01/18 09:58:17;;;;;;;3.00;1.07;;;4.80;82.20;;;;;;6185840;23;20004;-90
2021/01/18 10:00:48;;;;;;;2.07;1.03;;;4.90;82.20;;;;;;6185528;23;20020;-88
2021/01/18 10:03:35;;;;;;;0.80;0.70;;;4.90;82.20;;;;;;6184937;23;20008;-90
2021/01/18 10:06:15;;;;;;;1.00;0.40;;;5.00;82.20;;;;;;6161271;23;20012;-89
2021/01/18 10:08:46;;;;;;;1.63;0.63;;;5.10;82.10;;;;;;6161338;23;20427;-89
2021/01/18 10:11:41;;;;;;;2.55;0.50;;;5.00;82.00;;;;;;6185491;23;20001;-91
2021/01/18 10:14:20;;;;;;;1.63;0.63;;;5.10;82.10;;;;;;6184173;23;20389;-91
2021/01/18 10:17:06;;;;;;;2.43;1.07;;;5.10;82.10;;;;;;6159907;23;20017;-87
2021/01/18 10:19:33;;;;;;;4.27;0.90;;;5.10;82.30;;;;;;6187557;23;19997;-89
2021/01/18 10:22:01;;;;;;;3.43;0.87;;;5.10;82.30;;;;;;6160803;23;20005;-88
2021/01/18 10:24:28;;;;;;;0.73;0.47;;;5.10;82.30;;;;;;6186056;23;20008;-88
2021/01/18 10:27:10;;;;;;;1.17;0.43;;;5.10;82.30;;;;;;6188470;23;19997;-89
2021/01/18 10:29:45;;;;;;;1.70;0.73;;;5.20;82.40;;;;;;6187173;23;20016;-88
2021/01/18 10:32:11;;;;;;;3.27;0.80;;;5.20;82.40;;;;;;6187426;23;20005;-89
2021/01/18 10:34:37;;;;;;;3.33;0.93;;;5.20;82.40;;;;;;6185737;23;20174;-88
2021/01/18 10:37:12;;;;;;;2.37;0.60;;;5.30;82.30;;;;;;6186451;23;19997;-89
2021/01/18 10:39:42;;;;;;;1.40;1.00;;;5.40;82.20;;;;;;6160898;23;19997;-90
2021/01/18 10:42:09;;;;;;;0.80;0.50;;;5.40;82.00;;;;;;6204099;23;20001;-88
2021/01/18 10:44:50;;;;;;;3.37;1.20;;;5.50;82.00;;;;;;6185330;23;20019;-88
2021/01/18 10:47:27;;;;;;;10.85;0.65;;;5.50;81.90;;;;;;6208882;23;20317;-89
2021/01/18 10:49:57;;;;;;;0.60;0.50;;;5.60;81.80;;;;;;6210704;23;20001;-89
2021/01/18 10:52:43;;;;;;;1.70;0.68;;;5.60;81.80;;;;;;6185503;23;20266;-88
2021/01/18 10:55:13;;;;;;;4.27;1.20;;;5.60;81.70;;;;;;6208814;23;20403;-90
2021/01/18 10:57:41;;;;;;;0.93;0.35;;;5.70;81.70;;;;;;6213622;23;20373;-89
2021/01/18 11:00:09;;;;;;;2.43;1.10;;;5.70;81.80;;;;;;6184666;23;20005;-91
2021/01/18 11:02:37;;;;;;;1.37;0.70;;;5.70;81.90;;;;;;6185881;23;20422;-88
2021/01/18 11:05:03;;;;;;;1.43;1.00;;;5.60;82.10;;;;;;6211079;23;19998;-90
2021/01/18 11:07:30;;;;;;;3.90;0.80;;;5.60;82.20;;;;;;6185701;23;20392;-90
2021/01/18 11:09:57;;;;;;;1.20;0.47;;;5.60;82.30;;;;;;6186067;23;20016;-91
2021/01/18 11:12:30;;;;;;;1.13;0.60;;;5.60;82.30;;;;;;6186078;23;20370;-91
2021/01/18 11:15:01;;;;;;;1.13;0.83;;;5.60;82.40;;;;;;6186498;23;20428;-89
2021/01/18 11:17:28;;;;;;;1.27;0.40;;;5.60;82.40;;;;;;6186744;23;20016;-89
2021/01/18 11:19:54;;;;;;;9.03;1.17;;;5.60;82.40;;;;;;6189146;23;20242;-90
2021/01/18 11:22:23;;;;;;;10.50;1.90;;;5.70;82.50;;;;;;6187063;23;20009;-89
2021/01/18 11:24:50;;;;;;;2.33;0.77;;;5.70;82.40;;;;;;6209547;23;20009;-90
2021/01/18 11:27:16;;;;;;;0.20;0.10;;;5.80;82.40;;;;;;6210567;23;19997;-89
2021/01/18 11:29:43;;;;;;;1.50;0.67;;;5.80;82.20;;;;;;6186409;23;19997;-91
2021/01/18 11:32:10;;;;;;;0.83;0.30;;;5.80;82.20;;;;;;6187396;23;20009;-90
2021/01/18 11:34:36;;;;;;;1.63;1.10;;;5.80;82.30;;;;;;6186340;23;19997;-90
2021/01/18 11:37:51;;;;;;;;;;;;;;;;;;;;;
2021/01/18 11:40:44;;;;;;;2.10;0.70;;;5.90;82.40;;;;;;6204900;23;20005;-90
2021/01/18 11:46:44;;;;;;;0.67;0.50;;;6.00;82.20;;;;;;6115854;23;20055;-93
2021/01/18 11:49:11;;;;;;;0.60;0.30;;;6.00;82.00;;;;;;6140395;23;20016;-90
2021/01/18 11:51:51;;;;;;;3.50;0.67;;;6.10;82.00;;;;;;6189049;23;20015;-89
2021/01/18 11:54:20;;;;;;;1.00;0.40;;;6.10;82.00;;;;;;6185207;23;20016;-90
2021/01/18 11:56:48;;;;;;;3.07;0.70;;;6.10;81.90;;;;;;6184328;23;20005;-89
2021/01/18 11:59:16;;;;;;;2.07;0.97;;;6.10;82.00;;;;;;6204813;23;20265;-91
2021/01/18 12:01:43;;;;;;;0.97;0.40;;;6.20;82.00;;;;;;6181649;23;20012;-91
2021/01/18 12:04:10;;;;;;;0.83;0.40;;;6.20;81.90;;;;;;6183429;23;19997;-90
2021/01/18 12:06:36;;;;;;;1.53;0.83;;;6.30;82.00;;;;;;6183952;23;20008;-90
2021/01/18 12:09:04;;;;;;;0.97;0.70;;;6.30;81.90;;;;;;6208243;23;20008;-89
2021/01/18 12:11:34;;;;;;;0.83;0.47;;;6.30;82.00;;;;;;6157771;23;20001;-89
2021/01/18 12:14:00;;;;;;;0.87;0.30;;;6.30;82.10;;;;;;6207441;23;20206;-89
2021/01/18 12:16:27;;;;;;;2.33;0.83;;;6.30;82.20;;;;;;6180997;23;20021;-90
2021/01/18 12:18:54;;;;;;;1.07;0.70;;;6.30;82.30;;;;;;6206350;23;20400;-89
2021/01/18 12:21:20;;;;;;;1.00;0.40;;;6.30;82.30;;;;;;6207901;23;20005;-89
2021/01/18 12:23:47;;;;;;;0.77;0.30;;;6.30;82.30;;;;;;6182516;23;19997;-90
2021/01/18 12:26:17;;;;;;;0.20;0.10;;;6.40;82.20;;;;;;6208591;23;20001;-90
2021/01/18 12:28:47;;;;;;;0.57;0.37;;;6.40;82.10;;;;;;6183326;23;20005;-89
2021/01/18 12:31:13;;;;;;;3.30;0.87;;;6.40;82.20;;;;;;6206632;23;20009;-88
2021/01/18 12:33:40;;;;;;;2.70;0.60;;;6.50;82.20;;;;;;6183228;23;20276;-88
2021/01/18 12:36:06;;;;;;;0.67;0.30;;;6.50;82.10;;;;;;6184492;23;20012;-90
2021/01/18 12:38:35;;;;;;;1.23;0.60;;;6.70;81.90;;;;;;6207895;23;20001;-91
2021/01/18 12:41:20;;;;;;;0.70;0.40;;;6.90;81.60;;;;;;6184683;23;20017;-94
2021/01/18 12:43:51;;;;;;;1.20;0.70;;;7.00;81.10;;;;;;6092435;23;20009;-92
2021/01/18 12:46:33;;;;;;;;;;;7.20;80.80;;;;;;6033700;23;20049;-92
2021/01/18 12:49:08;;;;;;;1.33;0.50;;;7.30;80.50;;;;;;6064729;23;20100;-93
2021/01/18 12:52:46;;;;;;;1.13;0.50;;;7.40;80.10;;;;;;6042624;23;20067;-92
2021/01/18 12:55:26;;;;;;;1.43;0.67;;;7.60;79.80;;;;;;6068104;23;20006;-92
2021/01/18 12:57:53;;;;;;;11.07;0.80;;;7.80;79.60;;;;;;6067944;23;19994;-94
2021/01/18 13:00:20;;;;;;;0.40;0.37;;;7.90;79.40;;;;;;6047117;23;20355;-94
2021/01/18 13:02:52;;;;;;;3.27;1.07;;;8.00;79.30;;;;;;6051017;23;20002;-94
2021/01/18 13:05:20;;;;;;;0.57;0.23;;;8.10;79.20;;;;;;6051879;23;20015;-90
2021/01/18 13:07:49;;;;;;;1.00;0.57;;;8.20;79.00;;;;;;6054703;23;19999;-93
2021/01/18 13:10:51;;;;;;;1.00;0.33;;;8.30;78.90;;;;;;6052496;23;20009;-94
2021/01/18 13:13:23;;;;;;;1.07;0.40;;;8.50;78.80;;;;;;6059210;23;20006;-93
2021/01/18 13:15:50;;;;;;;0.60;0.37;;;8.60;78.60;;;;;;6005281;23;20015;-89
2021/01/18 13:18:16;;;;;;;0.13;0.03;;;8.70;78.50;;;;;;6026536;23;20002;-93
2021/01/18 13:20:45;;;;;;;0.93;0.25;;;8.80;78.50;;;;;;6068525;23;20427;-93
2021/01/18 13:23:21;;;;;;;0.45;0.25;;;8.80;78.40;;;;;;6158098;23;19997;-89
2021/01/18 13:25:59;;;;;;;;;;;;;;;;;;;;;
2021/01/18 13:28:38;;;;;;;6.07;0.77;;;9.00;78.40;;;;;;6194165;23;20002;-93